Time;durP1;ratioP1;P1;durP2;ratioP2;P2;SDS_P1;SDS_P2;PMS_P1;PMS_P2;Temp;Humidity;BMP_temperature;BMP_pressure;BME280_temperature;BME280_humidity;BME280_pressure;Samples;Min_cycle;Max_cycle;Signal;HPM_P1;HPM_P2
2022/12/24 00:02:25;;;;;;;219.20;122.43;;;;;;;;;;4390557;32;320361;-91
2022/12/24 00:04:52;;;;;;;206.73;118.57;;;;;;;;;;4399798;32;319142;-91
2022/12/24 00:07:20;;;;;;;204.63;116.63;;;;;;;;;;4389901;32;319553;-92
2022/12/24 00:09:47;;;;;;;198.73;113.67;;;;;;;;;;4399582;32;318321;-91
2022/12/24 00:12:14;;;;;;;204.00;114.33;;;;;;;;;;4390879;32;319186;-92
2022/12/24 00:14:41;;;;;;;212.30;120.53;;;;;;;;;;4399270;32;319464;-94
2022/12/24 00:17:08;;;;;;;189.60;114.97;;;;;;;;;;4385407;32;331644;-93
2022/12/24 00:19:35;;;;;;;192.87;111.27;;;;;;;;;;4395522;32;319397;-93
2022/12/24 00:22:02;;;;;;;238.10;139.30;;;;;;;;;;4385321;32;319558;-92
2022/12/24 00:24:30;;;;;;;217.03;126.07;;;;;;;;;;4396292;32;320415;-93
2022/12/24 00:26:57;;;;;;;214.87;121.47;;;;;;;;;;4395386;32;319489;-94
2022/12/24 00:29:24;;;;;;;190.73;106.07;;;;;;;;;;4388277;32;319764;-94
2022/12/24 00:31:51;;;;;;;131.97;74.37;;;;;;;;;;4401570;32;319371;-93
2022/12/24 00:34:17;;;;;;;168.90;102.83;;;;;;;;;;4393077;32;318487;-91
2022/12/24 00:36:44;;;;;;;210.90;126.17;;;;;;;;;;4394879;32;319832;-92
2022/12/24 00:39:12;;;;;;;258.37;145.77;;;;;;;;;;4388733;32;319573;-93
2022/12/24 00:41:40;;;;;;;248.60;148.67;;;;;;;;;;4401900;32;320347;-94
2022/12/24 00:44:09;;;;;;;236.03;139.47;;;;;;;;;;4393204;32;319382;-94
2022/12/24 00:46:37;;;;;;;210.73;121.47;;;;;;;;;;4404727;32;318288;-95
2022/12/24 00:49:05;;;;;;;247.77;144.33;;;;;;;;;;4395225;32;318165;-95
2022/12/24 00:51:35;;;;;;;267.83;153.77;;;;;;;;;;4403753;32;343088;-95
2022/12/24 00:54:02;;;;;;;230.97;137.60;;;;;;;;;;4394365;32;320326;-93
2022/12/24 00:56:29;;;;;;;231.47;134.60;;;;;;;;;;4396774;32;318236;-95
2022/12/24 00:58:58;;;;;;;195.23;110.07;;;;;;;;;;4404793;32;318204;-95
2022/12/24 01:01:26;;;;;;;195.97;110.87;;;;;;;;;;4389785;32;322771;-96
2022/12/24 01:05:08;;;;;;;184.60;106.70;;;;;;;;;;4395061;32;320270;-96
2022/12/24 01:06:40;;;;;;;171.60;94.07;;;;;;;;;;4383792;32;391156;-95
2022/12/24 01:09:07;;;;;;;150.17;79.67;;;;;;;;;;4378610;32;318572;-95
2022/12/24 01:11:34;;;;;;;115.03;67.20;;;;;;;;;;4394775;32;358852;-95
2022/12/24 01:14:03;;;;;;;120.63;66.50;;;;;;;;;;4383978;32;368149;-95
2022/12/24 01:16:30;;;;;;;104.93;63.43;;;;;;;;;;4396481;32;318489;-96
2022/12/24 01:18:57;;;;;;;110.63;62.87;;;;;;;;;;4395839;32;318678;-95
2022/12/24 01:21:24;;;;;;;103.57;59.00;;;;;;;;;;4385368;32;319116;-96
2022/12/24 01:23:53;;;;;;;112.13;66.83;;;;;;;;;;4396189;32;318806;-94
2022/12/24 01:26:22;;;;;;;112.05;63.25;;;;;;;;;;4383072;32;328753;-96
2022/12/24 01:28:49;;;;;;;107.80;61.13;;;;;;;;;;4394381;32;318451;-95
2022/12/24 01:31:20;;;;;;;84.67;51.60;;;;;;;;;;4384219;32;325957;-95
2022/12/24 01:33:51;;;;;;;86.30;50.10;;;;;;;;;;4394294;32;317615;-95
2022/12/24 01:36:19;;;;;;;86.57;52.07;;;;;;;;;;4382988;32;317667;-96
2022/12/24 01:39:15;;;;;;;80.23;50.47;;;;;;;;;;4396517;32;317158;-96
2022/12/24 01:44:30;;;;;;;73.80;43.23;;;;;;;;;;4382028;32;388670;-96
2022/12/24 01:47:06;;;;;;;78.97;43.83;;;;;;;;;;4392527;32;317348;-96
2022/12/24 01:49:34;;;;;;;69.17;45.37;;;;;;;;;;4380630;32;416472;-95
2022/12/24 01:52:05;;;;;;;74.97;47.40;;;;;;;;;;4385558;32;317510;-96
2022/12/24 01:54:37;;;;;;;72.20;44.30;;;;;;;;;;4397351;32;317088;-94
2022/12/24 01:57:12;;;;;;;78.17;47.43;;;;;;;;;;4390552;32;317251;-95
2022/12/24 01:59:44;;;;;;;76.17;45.83;;;;;;;;;;4401855;32;316427;-95
2022/12/24 02:02:13;;;;;;;75.83;42.83;;;;;;;;;;4392691;32;317009;-94
2022/12/24 02:04:44;;;;;;;67.30;39.13;;;;;;;;;;4402216;32;317396;-95
2022/12/24 02:07:12;;;;;;;72.23;41.90;;;;;;;;;;4387452;32;316266;-96
2022/12/24 02:09:40;;;;;;;65.63;42.83;;;;;;;;;;4396116;32;316254;-96
2022/12/24 02:12:12;;;;;;;66.73;41.83;;;;;;;;;;4386241;32;317498;-96
2022/12/24 02:14:39;;;;;;;73.33;41.37;;;;;;;;;;4394503;32;318370;-96
2022/12/24 02:17:17;;;;;;;58.33;35.17;;;;;;;;;;4381372;32;342023;-96
2022/12/24 02:20:18;;;;;;;65.60;39.20;;;;;;;;;;4395133;32;317528;-96
2022/12/24 02:23:04;;;;;;;79.90;43.30;;;;;;;;;;4380009;32;418165;-95
2022/12/24 02:25:41;;;;;;;62.73;39.90;;;;;;;;;;4379861;32;418757;-95
2022/12/24 02:28:16;;;;;;;80.10;43.87;;;;;;;;;;4382472;32;318375;-96
2022/12/24 02:30:50;;;;;;;83.20;47.03;;;;;;;;;;4393436;32;317216;-95
2022/12/24 02:33:25;;;;;;;75.80;43.67;;;;;;;;;;4383717;32;317872;-96
2022/12/24 02:35:59;;;;;;;70.90;45.37;;;;;;;;;;4392272;32;318179;-96
2022/12/24 02:38:29;;;;;;;107.27;66.93;;;;;;;;;;4381343;32;420463;-96
2022/12/24 02:41:01;;;;;;;126.60;75.30;;;;;;;;;;4393541;32;318415;-96
2022/12/24 02:43:36;;;;;;;175.07;97.20;;;;;;;;;;4381281;32;421524;-96
2022/12/24 02:46:12;;;;;;;193.67;110.00;;;;;;;;;;4384517;32;318567;-96
2022/12/24 02:48:42;;;;;;;213.83;118.50;;;;;;;;;;4397129;32;318107;-96
2022/12/24 02:51:11;;;;;;;217.93;122.57;;;;;;;;;;4390599;32;319763;-96
2022/12/24 02:53:38;;;;;;;222.07;125.43;;;;;;;;;;4402837;32;318351;-95
2022/12/24 02:56:31;;;;;;;222.80;133.13;;;;;;;;;;4384973;32;319579;-96
2022/12/24 02:59:26;;;;;;;212.33;121.43;;;;;;;;;;4389638;32;320279;-95
2022/12/24 03:02:07;;;;;;;235.63;132.70;;;;;;;;;;4381728;32;420233;-96
2022/12/24 03:04:45;;;;;;;244.00;140.33;;;;;;;;;;4381594;32;420850;-96
2022/12/24 03:07:22;;;;;;;245.37;140.23;;;;;;;;;;4384540;32;320416;-96
2022/12/24 03:10:01;;;;;;;256.40;145.07;;;;;;;;;;4394101;32;319504;-96
2022/12/24 03:12:34;;;;;;;259.13;144.90;;;;;;;;;;4380385;32;419092;-96
2022/12/24 03:15:03;;;;;;;273.37;147.97;;;;;;;;;;4381631;32;318283;-96
2022/12/24 03:17:42;;;;;;;295.00;150.23;;;;;;;;;;4391335;32;333554;-96
2022/12/24 03:20:11;;;;;;;278.27;137.10;;;;;;;;;;4381600;32;320317;-96
2022/12/24 03:22:38;;;;;;;306.17;138.90;;;;;;;;;;4390607;32;320525;-96
2022/12/24 03:25:06;;;;;;;281.97;136.13;;;;;;;;;;4381782;32;319384;-96
2022/12/24 03:27:34;;;;;;;329.33;145.90;;;;;;;;;;4392331;32;319589;-96
2022/12/24 03:30:03;;;;;;;313.07;147.60;;;;;;;;;;4381786;32;319589;-96
2022/12/24 03:32:35;;;;;;;302.03;137.77;;;;;;;;;;4394336;32;319692;-96
2022/12/24 03:35:02;;;;;;;272.43;130.30;;;;;;;;;;4383360;32;342307;-95
2022/12/24 03:37:29;;;;;;;317.57;133.97;;;;;;;;;;4392455;32;323840;-96
2022/12/24 03:39:56;;;;;;;258.53;119.80;;;;;;;;;;4392950;32;319758;-96
2022/12/24 03:42:23;;;;;;;241.63;111.27;;;;;;;;;;4385057;32;319939;-96
2022/12/24 03:44:50;;;;;;;217.87;99.33;;;;;;;;;;4393182;32;319462;-96
2022/12/24 03:47:17;;;;;;;219.63;98.93;;;;;;;;;;4383521;32;318894;-96
2022/12/24 03:49:45;;;;;;;310.17;117.77;;;;;;;;;;4394808;32;318425;-95
2022/12/24 03:52:12;;;;;;;248.33;114.63;;;;;;;;;;4382331;32;327319;-95
2022/12/24 03:54:42;;;;;;;290.33;136.43;;;;;;;;;;4396029;32;319294;-96
2022/12/24 03:57:09;;;;;;;260.10;118.50;;;;;;;;;;4381946;32;319732;-96
2022/12/24 03:59:36;;;;;;;248.50;119.40;;;;;;;;;;4393120;32;319547;-96
2022/12/24 04:02:04;;;;;;;237.07;113.13;;;;;;;;;;4381694;32;320598;-96
2022/12/24 04:04:32;;;;;;;241.47;114.23;;;;;;;;;;4394311;32;319428;-96
2022/12/24 04:07:01;;;;;;;214.17;109.13;;;;;;;;;;4393788;32;319357;-96
2022/12/24 04:09:28;;;;;;;207.60;109.27;;;;;;;;;;4380522;32;422239;-96
2022/12/24 04:11:55;;;;;;;189.40;106.37;;;;;;;;;;4395386;32;319540;-96
2022/12/24 04:14:24;;;;;;;189.27;105.33;;;;;;;;;;4386336;32;320155;-95
2022/12/24 04:16:50;;;;;;;197.70;110.83;;;;;;;;;;4402124;32;319189;-95
2022/12/24 04:19:17;;;;;;;217.43;110.73;;;;;;;;;;4393085;32;318250;-95
2022/12/24 04:21:44;;;;;;;208.13;109.47;;;;;;;;;;4403518;32;318290;-96
2022/12/24 04:24:13;;;;;;;209.57;115.30;;;;;;;;;;4390445;32;319333;-95
2022/12/24 04:26:40;;;;;;;232.87;127.97;;;;;;;;;;4398471;32;320367;-96
2022/12/24 04:29:08;;;;;;;279.83;136.77;;;;;;;;;;4386233;32;319496;-96
2022/12/24 04:31:35;;;;;;;276.50;138.47;;;;;;;;;;4395025;32;318245;-95
2022/12/24 04:34:09;;;;;;;265.10;139.27;;;;;;;;;;4385186;32;319482;-90
2022/12/24 04:36:36;;;;;;;249.37;130.60;;;;;;;;;;4397201;32;321749;-95
2022/12/24 04:39:21;;;;;;;237.27;130.00;;;;;;;;;;4396824;32;318382;-96
2022/12/24 04:41:57;;;;;;;253.00;138.60;;;;;;;;;;4370862;32;419212;-96
2022/12/24 04:44:24;;;;;;;247.50;139.00;;;;;;;;;;4381649;32;318200;-96
2022/12/24 04:46:52;;;;;;;247.47;133.37;;;;;;;;;;4403263;32;318346;-94
2022/12/24 04:49:19;;;;;;;224.93;122.07;;;;;;;;;;4393367;32;318380;-95
2022/12/24 04:51:46;;;;;;;234.50;121.70;;;;;;;;;;4403345;32;318202;-96
2022/12/24 04:54:15;;;;;;;221.27;123.97;;;;;;;;;;4392058;32;336876;-96
2022/12/24 04:56:43;;;;;;;244.13;128.83;;;;;;;;;;4402829;32;326306;-93
2022/12/24 04:59:09;;;;;;;232.57;125.97;;;;;;;;;;4392349;32;345234;-94
2022/12/24 05:01:36;;;;;;;230.67;125.17;;;;;;;;;;4405836;32;319726;-94
2022/12/24 05:04:05;;;;;;;219.03;121.30;;;;;;;;;;4394296;32;319667;-96
2022/12/24 05:06:33;;;;;;;235.67;124.83;;;;;;;;;;4405811;32;318156;-94
2022/12/24 05:09:00;;;;;;;220.53;124.13;;;;;;;;;;4401832;32;319138;-94
2022/12/24 05:11:31;;;;;;;197.70;115.57;;;;;;;;;;4375954;32;421184;-94
2022/12/24 05:13:58;;;;;;;203.10;113.07;;;;;;;;;;4396186;32;319755;-93
2022/12/24 05:16:25;;;;;;;192.10;104.97;;;;;;;;;;4386919;32;320277;-94
2022/12/24 05:18:52;;;;;;;200.37;107.30;;;;;;;;;;4396455;32;320209;-94
2022/12/24 05:21:22;;;;;;;212.70;107.50;;;;;;;;;;4387758;32;334791;-95
2022/12/24 05:26:39;;;;;;;222.47;108.17;;;;;;;;;;4388215;32;388866;-95
2022/12/24 05:29:08;;;;;;;172.90;90.03;;;;;;;;;;4383420;32;320812;-94
2022/12/24 05:31:35;;;;;;;149.57;77.00;;;;;;;;;;4394756;32;318606;-95
2022/12/24 05:34:03;;;;;;;156.97;75.40;;;;;;;;;;4387501;32;318486;-95
2022/12/24 05:36:31;;;;;;;134.93;72.70;;;;;;;;;;4405775;32;317294;-95
2022/12/24 05:38:58;;;;;;;138.03;71.83;;;;;;;;;;4405343;32;318610;-96
2022/12/24 05:41:25;;;;;;;137.47;75.63;;;;;;;;;;4395928;32;326546;-95
2022/12/24 05:43:54;;;;;;;147.37;78.50;;;;;;;;;;4406045;32;317994;-95
2022/12/24 05:46:22;;;;;;;166.20;79.27;;;;;;;;;;4393664;32;318622;-94
2022/12/24 05:48:50;;;;;;;154.10;77.43;;;;;;;;;;4397354;32;318703;-95
2022/12/24 05:51:18;;;;;;;169.57;80.63;;;;;;;;;;4383681;32;319086;-95
2022/12/24 05:53:46;;;;;;;181.13;86.27;;;;;;;;;;4400118;32;318727;-94
2022/12/24 05:56:17;;;;;;;158.53;79.90;;;;;;;;;;4387473;32;318197;-94
2022/12/24 05:58:44;;;;;;;172.63;80.73;;;;;;;;;;4404457;32;328033;-94
2022/12/24 06:01:14;;;;;;;165.67;75.67;;;;;;;;;;4395347;32;317286;-93
2022/12/24 06:03:41;;;;;;;188.93;78.63;;;;;;;;;;4404206;32;317395;-93
2022/12/24 06:06:10;;;;;;;165.30;77.30;;;;;;;;;;4394375;32;354157;-94
2022/12/24 06:08:38;;;;;;;146.87;75.53;;;;;;;;;;4405005;32;317712;-96
2022/12/24 06:11:07;;;;;;;148.00;68.87;;;;;;;;;;4393686;32;318560;-94
2022/12/24 06:13:35;;;;;;;130.87;65.10;;;;;;;;;;4405202;32;318017;-92
2022/12/24 06:16:04;;;;;;;153.53;81.87;;;;;;;;;;4390691;32;324407;-90
2022/12/24 06:18:35;;;;;;;182.60;55.60;;;;;;;;;;4405326;32;317762;-95
2022/12/24 06:21:03;;;;;;;122.47;55.80;;;;;;;;;;4386871;32;319445;-94
2022/12/24 06:23:32;;;;;;;139.80;71.47;;;;;;;;;;4395572;32;318638;-95
2022/12/24 06:26:00;;;;;;;115.53;59.93;;;;;;;;;;4394809;32;356449;-95
2022/12/24 06:28:28;;;;;;;108.70;58.40;;;;;;;;;;4384455;32;417924;-96
2022/12/24 06:30:55;;;;;;;159.17;64.87;;;;;;;;;;4398390;32;330961;-94
2022/12/24 06:33:21;;;;;;;127.00;61.13;;;;;;;;;;4394024;32;344002;-94
2022/12/24 06:35:50;;;;;;;117.87;66.70;;;;;;;;;;4404813;32;317306;-94
2022/12/24 06:38:17;;;;;;;128.37;68.73;;;;;;;;;;4393113;32;318002;-93
2022/12/24 06:40:46;;;;;;;136.93;68.83;;;;;;;;;;4403452;32;317310;-93
2022/12/24 06:43:13;;;;;;;135.37;65.00;;;;;;;;;;4393058;32;326180;-95
2022/12/24 06:45:44;;;;;;;152.83;75.20;;;;;;;;;;4404959;32;317302;-95
2022/12/24 06:48:11;;;;;;;168.27;79.90;;;;;;;;;;4393554;32;318521;-96
2022/12/24 06:50:38;;;;;;;161.27;76.37;;;;;;;;;;4401433;32;317448;-96
2022/12/24 06:53:07;;;;;;;153.83;73.80;;;;;;;;;;4386095;32;319412;-96
2022/12/24 06:55:34;;;;;;;163.07;81.77;;;;;;;;;;4394433;32;358410;-96
2022/12/24 06:58:01;;;;;;;197.13;96.53;;;;;;;;;;4386584;32;318789;-90
2022/12/24 07:00:28;;;;;;;197.20;89.13;;;;;;;;;;4393893;32;318631;-96
2022/12/24 07:02:55;;;;;;;192.90;97.03;;;;;;;;;;4395353;32;318403;-95
2022/12/24 07:05:22;;;;;;;235.30;102.57;;;;;;;;;;4385035;32;328578;-95
2022/12/24 07:07:48;;;;;;;228.80;110.47;;;;;;;;;;4403528;32;318388;-95
2022/12/24 07:10:18;;;;;;;237.67;118.43;;;;;;;;;;4393279;32;319542;-94
2022/12/24 07:12:45;;;;;;;267.80;122.20;;;;;;;;;;4403399;32;319413;-95
2022/12/24 07:15:14;;;;;;;276.27;126.40;;;;;;;;;;4393220;32;319359;-95
2022/12/24 07:17:41;;;;;;;281.87;135.63;;;;;;;;;;4403315;32;318395;-95
2022/12/24 07:20:11;;;;;;;255.33;136.10;;;;;;;;;;4393763;32;318528;-94
2022/12/24 07:22:38;;;;;;;287.53;145.90;;;;;;;;;;4398532;32;319495;-95
2022/12/24 07:25:06;;;;;;;289.30;142.87;;;;;;;;;;4389480;32;319813;-92
2022/12/24 07:27:34;;;;;;;267.33;140.50;;;;;;;;;;4397018;32;319699;-96
2022/12/24 07:30:01;;;;;;;289.87;149.43;;;;;;;;;;4387206;32;319556;-96
2022/12/24 07:32:28;;;;;;;288.73;141.07;;;;;;;;;;4396584;32;319479;-95
2022/12/24 07:34:55;;;;;;;279.50;138.40;;;;;;;;;;4396611;32;319343;-96
2022/12/24 07:37:23;;;;;;;265.33;132.40;;;;;;;;;;4385349;32;320303;-95
2022/12/24 07:39:50;;;;;;;261.93;139.50;;;;;;;;;;4402260;32;317401;-95
2022/12/24 07:42:17;;;;;;;278.40;137.97;;;;;;;;;;4393667;32;322529;-95
2022/12/24 07:44:46;;;;;;;281.63;135.80;;;;;;;;;;4404217;32;318623;-95
2022/12/24 07:47:15;;;;;;;282.57;148.43;;;;;;;;;;4391286;32;318407;-94
2022/12/24 07:49:46;;;;;;;304.30;156.97;;;;;;;;;;4401876;32;318293;-96
2022/12/24 07:52:14;;;;;;;287.10;154.27;;;;;;;;;;4389982;27;319729;-82
2022/12/24 07:54:41;;;;;;;290.93;148.93;;;;;;;;;;4386086;32;320199;-81
2022/12/24 07:57:08;;;;;;;301.00;154.17;;;;;;;;;;4374160;32;319851;-80
2022/12/24 07:59:36;;;;;;;290.67;147.23;;;;;;;;;;4385247;32;319873;-79
2022/12/24 08:02:05;;;;;;;309.23;160.57;;;;;;;;;;4372059;32;319652;-80
2022/12/24 08:04:35;;;;;;;291.23;156.03;;;;;;;;;;4385691;32;319774;-80
2022/12/24 08:07:02;;;;;;;315.17;159.87;;;;;;;;;;4374332;32;319784;-82
2022/12/24 08:09:32;;;;;;;302.13;162.03;;;;;;;;;;4385353;32;319967;-80
2022/12/24 08:11:59;;;;;;;298.00;160.67;;;;;;;;;;4386065;32;319863;-81
2022/12/24 08:14:27;;;;;;;293.73;158.97;;;;;;;;;;4373397;32;419104;-81
2022/12/24 08:16:54;;;;;;;318.53;166.20;;;;;;;;;;4386208;32;320040;-86
2022/12/24 08:19:23;;;;;;;307.60;162.50;;;;;;;;;;4372873;32;319713;-82
2022/12/24 08:21:51;;;;;;;299.37;168.10;;;;;;;;;;4385184;32;319970;-83
2022/12/24 08:24:18;;;;;;;307.80;164.80;;;;;;;;;;4374763;32;320137;-82
2022/12/24 08:26:46;;;;;;;313.00;167.40;;;;;;;;;;4386469;32;319777;-82
2022/12/24 08:29:13;;;;;;;319.67;178.40;;;;;;;;;;4378610;32;319920;-82
2022/12/24 08:31:41;;;;;;;318.90;173.03;;;;;;;;;;4401153;32;319896;-85
2022/12/24 08:34:10;;;;;;;338.23;180.23;;;;;;;;;;4393261;32;319932;-82
2022/12/24 08:36:39;;;;;;;322.33;178.07;;;;;;;;;;4402805;32;319917;-84
2022/12/24 08:39:07;;;;;;;340.70;184.20;;;;;;;;;;4393028;32;319928;-80
2022/12/24 08:41:35;;;;;;;320.43;182.20;;;;;;;;;;4402990;32;320011;-83
2022/12/24 08:44:03;;;;;;;299.10;171.37;;;;;;;;;;4393307;32;319879;-82
2022/12/24 08:46:31;;;;;;;324.57;175.33;;;;;;;;;;4403500;32;319884;-83
2022/12/24 08:48:58;;;;;;;340.40;187.60;;;;;;;;;;4402973;32;318832;-84
2022/12/24 08:51:26;;;;;;;366.10;199.47;;;;;;;;;;4392869;32;319901;-85
2022/12/24 08:53:55;;;;;;;342.43;191.27;;;;;;;;;;4402787;32;319723;-82
2022/12/24 08:56:22;;;;;;;347.63;193.50;;;;;;;;;;4383274;32;320140;-79
2022/12/24 08:58:50;;;;;;;303.10;166.83;;;;;;;;;;4401251;32;320271;-83
2022/12/24 09:01:19;;;;;;;265.47;146.67;;;;;;;;;;4392957;32;320305;-84
2022/12/24 09:03:47;;;;;;;226.13;122.43;;;;;;;;;;4402647;32;319831;-85
2022/12/24 09:06:15;;;;;;;179.07;102.80;;;;;;;;;;4391623;32;319939;-84
2022/12/24 09:08:43;;;;;;;190.33;103.23;;;;;;;;;;4402195;32;319779;-86
2022/12/24 09:11:15;;;;;;;189.63;107.63;;;;;;;;;;4392800;32;319915;-84
2022/12/24 09:13:43;;;;;;;175.57;100.80;;;;;;;;;;4402093;32;319864;-85
2022/12/24 09:16:11;;;;;;;176.93;105.63;;;;;;;;;;4392172;32;319975;-85
2022/12/24 09:18:39;;;;;;;184.77;108.43;;;;;;;;;;4403969;32;320008;-85
2022/12/24 09:21:10;;;;;;;204.90;122.00;;;;;;;;;;4392846;32;319753;-84
2022/12/24 09:23:39;;;;;;;209.23;123.73;;;;;;;;;;4403610;32;320200;-84
2022/12/24 09:26:08;;;;;;;164.43;101.10;;;;;;;;;;4390265;32;319718;-84
2022/12/24 09:28:37;;;;;;;142.33;88.30;;;;;;;;;;4403267;32;320084;-86
2022/12/24 09:31:06;;;;;;;123.27;75.53;;;;;;;;;;4392061;32;319058;-85
2022/12/24 09:33:35;;;;;;;236.23;117.37;;;;;;;;;;4402214;32;319041;-85
2022/12/24 09:36:04;;;;;;;145.77;89.67;;;;;;;;;;4392385;32;319751;-88
2022/12/24 09:38:32;;;;;;;119.93;72.67;;;;;;;;;;4400680;32;318733;-88
2022/12/24 09:41:01;;;;;;;158.27;89.87;;;;;;;;;;4400514;32;318814;-79
2022/12/24 09:43:32;;;;;;;170.93;103.60;;;;;;;;;;4388999;32;418260;-86
2022/12/24 09:46:09;;;;;;;243.83;128.17;;;;;;;;;;4401578;32;319921;-85
2022/12/24 09:48:41;;;;;;;150.90;94.30;;;;;;;;;;4389153;32;419521;-83
2022/12/24 09:51:11;;;;;;;157.97;94.27;;;;;;;;;;4391697;32;318959;-83
2022/12/24 09:53:43;;;;;;;160.30;97.07;;;;;;;;;;4402348;32;345134;-84
2022/12/24 09:56:16;;;;;;;180.37;107.27;;;;;;;;;;4391737;32;318739;-84
2022/12/24 09:58:47;;;;;;;152.77;93.27;;;;;;;;;;4402703;32;319940;-85
2022/12/24 10:01:17;;;;;;;151.53;92.17;;;;;;;;;;4391410;32;318876;-85
2022/12/24 10:03:46;;;;;;;196.47;114.20;;;;;;;;;;4402794;32;318644;-84
2022/12/24 10:06:16;;;;;;;241.43;137.97;;;;;;;;;;4391239;32;320194;-84
2022/12/24 10:08:56;;;;;;;246.17;152.03;;;;;;;;;;4401487;32;319701;-84
2022/12/24 10:11:30;;;;;;;281.97;164.40;;;;;;;;;;4389686;32;319732;-84
2022/12/24 10:14:12;;;;;;;279.60;158.20;;;;;;;;;;4402910;32;319658;-83
2022/12/24 10:16:50;;;;;;;260.13;157.53;;;;;;;;;;4389415;32;420468;-82
2022/12/24 10:19:22;;;;;;;274.83;164.33;;;;;;;;;;4391259;32;320029;-84
2022/12/24 10:21:59;;;;;;;309.23;189.23;;;;;;;;;;4401154;32;319821;-81
2022/12/24 10:24:32;;;;;;;259.40;154.33;;;;;;;;;;4389176;32;334296;-84
2022/12/24 10:27:05;;;;;;;257.07;157.10;;;;;;;;;;4401847;32;319708;-84
2022/12/24 10:29:36;;;;;;;285.20;172.27;;;;;;;;;;4388420;32;419213;-84
2022/12/24 10:32:16;;;;;;;362.77;204.13;;;;;;;;;;4390191;32;405348;-85
2022/12/24 10:34:46;;;;;;;304.03;191.53;;;;;;;;;;4399573;32;320226;-83
2022/12/24 10:37:24;;;;;;;318.77;185.77;;;;;;;;;;4391487;32;319944;-83
2022/12/24 10:39:52;;;;;;;294.00;187.70;;;;;;;;;;4402531;32;319830;-84
2022/12/24 10:42:22;;;;;;;323.53;195.57;;;;;;;;;;4391449;32;319817;-83
2022/12/24 10:44:55;;;;;;;307.60;187.83;;;;;;;;;;4401365;32;319638;-83
2022/12/24 10:47:24;;;;;;;328.47;190.63;;;;;;;;;;4391449;32;320089;-84
2022/12/24 10:49:58;;;;;;;308.20;181.10;;;;;;;;;;4401074;32;319881;-83
2022/12/24 10:52:31;;;;;;;271.57;161.93;;;;;;;;;;4390719;32;319754;-84
2022/12/24 10:55:19;;;;;;;267.90;160.27;;;;;;;;;;4400438;32;319687;-84
2022/12/24 10:57:56;;;;;;;232.47;135.30;;;;;;;;;;4388740;32;420151;-84
2022/12/24 11:00:25;;;;;;;222.40;127.20;;;;;;;;;;4390045;32;319825;-85
2022/12/24 11:03:09;;;;;;;198.27;120.63;;;;;;;;;;4401972;32;319756;-85
2022/12/24 11:05:37;;;;;;;241.97;131.23;;;;;;;;;;4388055;32;420322;-84
2022/12/24 11:08:13;;;;;;;210.67;118.27;;;;;;;;;;4389048;32;319908;-84
2022/12/24 11:10:44;;;;;;;201.80;114.20;;;;;;;;;;4401578;32;319976;-84
2022/12/24 11:13:25;;;;;;;194.73;109.10;;;;;;;;;;4391728;32;320022;-82
2022/12/24 11:16:01;;;;;;;174.40;93.00;;;;;;;;;;4400878;32;357830;-85
2022/12/24 11:18:35;;;;;;;161.40;93.00;;;;;;;;;;4386814;32;419130;-83
2022/12/24 11:21:03;;;;;;;160.33;94.93;;;;;;;;;;4391491;32;318969;-80
2022/12/24 11:23:31;;;;;;;150.50;85.93;;;;;;;;;;4400458;32;318870;-83
2022/12/24 11:25:59;;;;;;;133.60;75.23;;;;;;;;;;4400054;32;341539;-83
2022/12/24 11:28:28;;;;;;;127.43;76.60;;;;;;;;;;4390840;32;318643;-84
2022/12/24 11:31:04;;;;;;;132.17;76.70;;;;;;;;;;4400522;32;318650;-83
2022/12/24 11:33:47;;;;;;;125.00;69.80;;;;;;;;;;4388211;32;389425;-84
2022/12/24 11:36:14;;;;;;;120.80;72.77;;;;;;;;;;4390863;32;318858;-84
2022/12/24 11:38:42;;;;;;;119.50;70.97;;;;;;;;;;4399724;32;318760;-84
2022/12/24 11:41:11;;;;;;;113.83;68.60;;;;;;;;;;4391323;32;318728;-84
2022/12/24 11:43:45;;;;;;;120.10;70.30;;;;;;;;;;4400327;32;318659;-86
2022/12/24 11:46:21;;;;;;;103.50;61.47;;;;;;;;;;4391194;32;318968;-86
2022/12/24 11:49:06;;;;;;;121.63;68.70;;;;;;;;;;4399633;32;318777;-82
2022/12/24 11:51:34;;;;;;;126.57;77.23;;;;;;;;;;4387430;32;390493;-84
2022/12/24 11:54:13;;;;;;;107.97;64.77;;;;;;;;;;4401544;32;319154;-84
2022/12/24 11:56:45;;;;;;;181.73;105.83;;;;;;;;;;4387152;32;418480;-83
2022/12/24 11:59:18;;;;;;;120.40;72.13;;;;;;;;;;4390852;32;319856;-85
2022/12/24 12:01:53;;;;;;;113.00;69.77;;;;;;;;;;4401073;32;318784;-86
2022/12/24 12:04:24;;;;;;;104.20;64.70;;;;;;;;;;4390365;32;318741;-84
2022/12/24 12:06:57;;;;;;;111.50;67.33;;;;;;;;;;4401171;32;318894;-88
2022/12/24 12:09:28;;;;;;;131.83;80.00;;;;;;;;;;4389800;32;318986;-86
2022/12/24 12:12:01;;;;;;;110.20;68.57;;;;;;;;;;4401433;32;318827;-84
2022/12/24 12:14:33;;;;;;;111.97;67.37;;;;;;;;;;4384862;32;418029;-83
2022/12/24 12:17:08;;;;;;;107.60;69.67;;;;;;;;;;4400019;32;319058;-84
2022/12/24 12:19:43;;;;;;;106.67;62.33;;;;;;;;;;4386751;32;418001;-85
2022/12/24 12:22:23;;;;;;;83.37;55.87;;;;;;;;;;4388988;32;318845;-82
2022/12/24 12:24:54;;;;;;;99.13;59.63;;;;;;;;;;4398922;32;318081;-89
2022/12/24 12:27:28;;;;;;;101.37;62.93;;;;;;;;;;4390196;32;317546;-85
2022/12/24 12:29:59;;;;;;;92.83;63.00;;;;;;;;;;4399607;32;330806;-87
2022/12/24 12:32:35;;;;;;;96.10;63.63;;;;;;;;;;4386973;32;417303;-86
2022/12/24 12:35:14;;;;;;;115.13;68.23;;;;;;;;;;4388506;32;317709;-88
2022/12/24 12:37:44;;;;;;;102.97;68.23;;;;;;;;;;4400363;32;318826;-84
2022/12/24 12:40:15;;;;;;;119.23;73.10;;;;;;;;;;4389598;32;318699;-83
2022/12/24 12:42:50;;;;;;;114.67;71.23;;;;;;;;;;4401189;32;318657;-83
2022/12/24 12:45:33;;;;;;;129.00;77.00;;;;;;;;;;4389933;32;318844;-86
2022/12/24 12:48:17;;;;;;;129.40;77.93;;;;;;;;;;4400352;32;318868;-85
2022/12/24 12:50:52;;;;;;;131.27;81.83;;;;;;;;;;4386748;32;419218;-85
2022/12/24 12:53:36;;;;;;;129.97;82.13;;;;;;;;;;4388285;32;318714;-86
2022/12/24 12:56:14;;;;;;;144.37;80.97;;;;;;;;;;4389608;32;318802;-84
2022/12/24 12:58:46;;;;;;;133.60;85.27;;;;;;;;;;4400636;32;318693;-83
2022/12/24 13:01:20;;;;;;;142.63;83.87;;;;;;;;;;4390770;32;319126;-83
2022/12/24 13:04:22;;;;;;;130.43;86.23;;;;;;;;;;4400602;32;318731;-84
2022/12/24 13:07:09;;;;;;;139.33;85.43;;;;;;;;;;4384774;32;389982;-83
2022/12/24 13:09:59;;;;;;;134.93;89.93;;;;;;;;;;4390298;32;421941;-82
2022/12/24 13:12:41;;;;;;;142.50;87.13;;;;;;;;;;4396991;32;331149;-83
2022/12/24 13:15:32;;;;;;;147.10;89.20;;;;;;;;;;4398569;32;318781;-80
2022/12/24 13:18:31;;;;;;;128.13;85.83;;;;;;;;;;4409159;32;318748;-81
2022/12/24 13:21:03;;;;;;;133.80;85.30;;;;;;;;;;4403150;32;418507;-79
2022/12/24 13:23:35;;;;;;;138.40;85.57;;;;;;;;;;4390546;32;419573;-86
2022/12/24 13:26:29;;;;;;;144.80;91.80;;;;;;;;;;4396462;32;318311;-78
2022/12/24 13:29:41;;;;;;;151.77;92.77;;;;;;;;;;4366682;32;418682;-78
2022/12/24 13:32:50;;;;;;;156.43;96.00;;;;;;;;;;4354426;32;421801;-87
2022/12/24 13:35:32;;;;;;;143.67;88.03;;;;;;;;;;4346523;32;319028;-84
2022/12/24 13:38:33;;;;;;;145.40;87.30;;;;;;;;;;4359367;32;318820;-85
2022/12/24 13:41:35;;;;;;;147.23;84.53;;;;;;;;;;4351853;32;418912;-83
2022/12/24 13:44:04;;;;;;;141.20;84.30;;;;;;;;;;4318101;32;418702;-82
2022/12/24 13:46:50;;;;;;;149.40;90.43;;;;;;;;;;4365404;32;318873;-88
2022/12/24 13:49:21;;;;;;;137.73;85.67;;;;;;;;;;4392035;32;318854;-88
2022/12/24 13:51:49;;;;;;;138.30;84.83;;;;;;;;;;4402271;32;318640;-83
2022/12/24 13:54:24;;;;;;;148.57;91.70;;;;;;;;;;4390977;32;318894;-84
2022/12/24 13:56:51;;;;;;;209.67;113.27;;;;;;;;;;4402381;32;318903;-78
2022/12/24 13:59:29;;;;;;;173.73;104.80;;;;;;;;;;4391214;32;319683;-83
2022/12/24 14:01:57;;;;;;;171.53;101.40;;;;;;;;;;4403070;32;351735;-87
2022/12/24 14:04:29;;;;;;;154.23;98.93;;;;;;;;;;4390529;32;319821;-85
2022/12/24 14:06:59;;;;;;;169.77;102.93;;;;;;;;;;4403244;32;318854;-86
2022/12/24 14:09:29;;;;;;;163.00;102.57;;;;;;;;;;4391501;32;327055;-86
2022/12/24 14:12:32;;;;;;;165.77;105.70;;;;;;;;;;4400720;32;320030;-85
2022/12/24 14:15:19;;;;;;;170.13;103.13;;;;;;;;;;4399904;32;419746;-92
2022/12/24 14:17:48;;;;;;;184.20;111.43;;;;;;;;;;4390734;32;390823;-93